Terminal Aerodrome Forecast
Issued by NWS

Home | Current Version | Previous Version | Text Only | Print | Product List | Glossary On
Versions: 1 2 3 4 5 6 7 8 9 10 11 12 13 14 15
593
FTUS41 KBTV 271122
TAFRUT
TAF
KRUT 271122Z 2712/2812 34004KT P6SM BKN008
      TEMPO 2712/2714 SCT008
     FM271400 34005KT P6SM BKN080
     FM271800 32005KT P6SM SCT070=

USA.gov is the U.S. government's official web portal to all federal, state and local government web resources and services.